createdAt,value
2023-01-29T00:01:08.762Z,101549.82
2023-01-29T00:04:15.632Z,101544.85
2023-01-29T00:07:21.019Z,101534.52
2023-01-29T00:10:26.887Z,101532.39
2023-01-29T00:13:34.760Z,101524.77
2023-01-29T00:16:39.966Z,101518.92
2023-01-29T00:19:45.437Z,101511.55
2023-01-29T00:22:50.693Z,101512.09
2023-01-29T00:25:55.881Z,101507.94
2023-01-29T00:29:02.689Z,101505.05
2023-01-29T00:32:08.188Z,101503.43
2023-01-29T00:35:15.536Z,101493.17
2023-01-29T00:38:20.747Z,101490.95
2023-01-29T00:41:45.261Z,101481.61
2023-01-29T00:44:59.842Z,101484.80
2023-01-29T00:48:05.613Z,101485.09
2023-01-29T00:51:10.936Z,101489.01
2023-01-29T00:54:16.320Z,101487.47
2023-01-29T00:57:21.580Z,101490.93
2023-01-29T01:00:26.884Z,101494.35
2023-01-29T01:03:36.858Z,101494.21
2023-01-29T01:06:42.939Z,101496.70
2023-01-29T01:10:05.806Z,101503.24
2023-01-29T01:13:11.133Z,101503.18
2023-01-29T01:16:18.619Z,101500.73
2023-01-29T01:19:23.987Z,101495.61
2023-01-29T01:22:29.813Z,101492.17
2023-01-29T01:25:35.155Z,101486.51
2023-01-29T01:28:40.475Z,101481.42
2023-01-29T01:31:45.965Z,101478.38
2023-01-29T01:34:52.916Z,101475.58
2023-01-29T01:37:58.232Z,101478.94
2023-01-29T01:41:03.644Z,101486.09
2023-01-29T01:44:09.059Z,101485.70
2023-01-29T01:47:15.657Z,101485.24
2023-01-29T01:50:28.319Z,101485.23
2023-01-29T01:53:37.503Z,101486.03
2023-01-29T01:56:45.564Z,101484.55
2023-01-29T01:59:52.444Z,101481.11
2023-01-29T02:03:15.421Z,101476.11
2023-01-29T02:06:38.211Z,101470.65
2023-01-29T02:09:46.457Z,101470.96
2023-01-29T02:12:52.420Z,101465.50
2023-01-29T02:15:57.746Z,101467.96
2023-01-29T02:19:03.645Z,101469.94
2023-01-29T02:22:18.219Z,101470.29
2023-01-29T02:25:36.244Z,101472.77
2023-01-29T02:28:45.412Z,101477.95
2023-01-29T02:31:54.045Z,101470.41
2023-01-29T02:35:24.841Z,101451.08
2023-01-29T02:38:34.623Z,101452.64
2023-01-29T02:41:43.807Z,101459.27
2023-01-29T02:44:56.788Z,101450.30
2023-01-29T02:48:03.400Z,101450.29
2023-01-29T02:51:11.791Z,101460.46
2023-01-29T02:54:20.141Z,101461.34
2023-01-29T02:57:29.299Z,101463.43
2023-01-29T03:00:37.711Z,101458.43
2023-01-29T03:03:45.677Z,101455.09
2023-01-29T03:06:54.548Z,101453.04
2023-01-29T03:10:00.684Z,101448.89
2023-01-29T03:13:09.669Z,101448.59
2023-01-29T03:16:19.625Z,101444.56
2023-01-29T03:19:31.913Z,101434.48
2023-01-29T03:22:40.606Z,101423.23
2023-01-29T03:26:03.404Z,101414.95
2023-01-29T03:29:28.409Z,101416.83
2023-01-29T03:32:36.149Z,101412.02
2023-01-29T03:35:44.215Z,101408.16
2023-01-29T03:38:49.819Z,101400.59
2023-01-29T03:41:57.477Z,101393.47
2023-01-29T03:45:08.632Z,101390.59
2023-01-29T03:48:23.831Z,101386.55
2023-01-29T03:51:31.235Z,101382.32
2023-01-29T03:54:40.883Z,101380.14
2023-01-29T03:57:53.478Z,101384.96
2023-01-29T04:01:02.267Z,101392.69
2023-01-29T04:04:13.518Z,101382.55
2023-01-29T04:07:23.809Z,101368.34
2023-01-29T04:10:37.416Z,101362.83
2023-01-29T04:13:44.785Z,101364.77
2023-01-29T04:16:53.817Z,101362.92
2023-01-29T04:20:10.533Z,101355.20
2023-01-29T04:23:22.747Z,101350.20
2023-01-29T04:26:34.137Z,101341.71
2023-01-29T04:29:47.784Z,101340.94
2023-01-29T04:32:58.673Z,101342.59
2023-01-29T04:36:11.030Z,101343.60
2023-01-29T04:39:18.868Z,101334.02
2023-01-29T04:42:28.652Z,101332.05
2023-01-29T04:45:40.247Z,101324.31
2023-01-29T04:48:52.779Z,101305.81
2023-01-29T04:52:02.501Z,101296.87
2023-01-29T04:55:10.909Z,101295.70
2023-01-29T04:58:21.142Z,101302.61
2023-01-29T05:01:29.748Z,101307.35
2023-01-29T05:04:35.665Z,101313.94
2023-01-29T05:07:42.797Z,101307.90
2023-01-29T05:10:49.346Z,101303.61
2023-01-29T05:13:55.116Z,101302.30
2023-01-29T05:17:03.379Z,101292.03
2023-01-29T05:20:09.954Z,101287.65
2023-01-29T05:23:18.311Z,101289.84
2023-01-29T05:26:41.100Z,101292.87
2023-01-29T05:29:47.203Z,101297.95
2023-01-29T05:32:52.573Z,101294.75
2023-01-29T05:35:59.422Z,101288.50
2023-01-29T05:39:04.823Z,101278.55
2023-01-29T05:42:10.346Z,101286.48
2023-01-29T05:45:15.706Z,101291.86
2023-01-29T05:48:21.282Z,101301.54
2023-01-29T05:51:26.553Z,101308.59
2023-01-29T05:54:31.907Z,101312.79
2023-01-29T05:57:37.335Z,101306.63
2023-01-29T06:00:42.671Z,101299.27
2023-01-29T06:03:48.290Z,101311.49
2023-01-29T06:06:53.680Z,101315.41
2023-01-29T06:09:58.869Z,101318.98
2023-01-29T06:13:04.202Z,101326.13
2023-01-29T06:16:10.904Z,101330.20
2023-01-29T06:19:18.157Z,101318.82
2023-01-29T06:22:23.538Z,101309.58
2023-01-29T06:25:29.182Z,101314.78
2023-01-29T06:28:34.319Z,101321.17
2023-01-29T06:31:40.574Z,101339.81
2023-01-29T06:34:48.644Z,101347.45
2023-01-29T06:37:55.071Z,101343.16
2023-01-29T06:41:00.694Z,101348.48
2023-01-29T06:44:06.108Z,101354.38
2023-01-29T06:47:11.409Z,101350.65
2023-01-29T06:50:17.275Z,101344.62
2023-01-29T06:53:22.769Z,101337.94
2023-01-29T06:56:28.382Z,101338.65
2023-01-29T06:59:33.813Z,101334.52
2023-01-29T07:02:39.046Z,101331.14
2023-01-29T07:05:44.669Z,101323.73
2023-01-29T07:08:49.916Z,101310.29
2023-01-29T07:11:55.141Z,101307.95
2023-01-29T07:15:00.497Z,101300.98
2023-01-29T07:18:12.157Z,101302.11
2023-01-29T07:21:17.903Z,101302.21
2023-01-29T07:24:23.037Z,101304.86
2023-01-29T07:27:28.608Z,101298.35
2023-01-29T07:30:34.181Z,101295.96
2023-01-29T07:33:39.501Z,101293.75
2023-01-29T07:36:44.974Z,101298.45
2023-01-29T07:39:50.299Z,101299.02
2023-01-29T07:43:00.511Z,101298.81
2023-01-29T07:46:06.163Z,101292.81
2023-01-29T07:49:11.642Z,101292.04
2023-01-29T07:52:16.948Z,101295.79
2023-01-29T07:55:22.377Z,101300.09
2023-01-29T07:58:27.621Z,101304.20
2023-01-29T08:01:32.810Z,101308.16
2023-01-29T08:04:38.041Z,101316.26
2023-01-29T08:07:44.826Z,101316.39
2023-01-29T08:10:52.733Z,101314.20
2023-01-29T08:13:58.169Z,101313.48
2023-01-29T08:17:03.533Z,101319.71
2023-01-29T08:20:10.320Z,101320.45
2023-01-29T08:23:16.430Z,101312.05
2023-01-29T08:26:22.008Z,101304.14
2023-01-29T08:29:27.366Z,101305.58
2023-01-29T08:32:32.896Z,101286.94
2023-01-29T08:35:38.742Z,101277.23
2023-01-29T08:38:44.057Z,101264.73
2023-01-29T08:41:49.256Z,101256.91
2023-01-29T08:44:54.538Z,101250.46
2023-01-29T08:47:59.822Z,101245.81
2023-01-29T08:51:05.865Z,101254.07
2023-01-29T08:54:11.232Z,101256.40
2023-01-29T08:57:16.536Z,101259.19
2023-01-29T09:00:22.468Z,101253.36
2023-01-29T09:03:27.724Z,101244.80
2023-01-29T09:06:32.843Z,101250.59
2023-01-29T09:09:38.894Z,101252.45
2023-01-29T09:12:44.124Z,101249.96
2023-01-29T09:15:49.238Z,101256.48
2023-01-29T09:18:55.269Z,101260.91
2023-01-29T09:22:00.688Z,101257.79
2023-01-29T09:25:06.397Z,101256.44
2023-01-29T09:28:12.037Z,101251.54
2023-01-29T09:31:17.543Z,101256.86
2023-01-29T09:34:22.913Z,101256.23
2023-01-29T09:37:28.072Z,101252.35
2023-01-29T09:40:36.611Z,101255.88
2023-01-29T09:43:45.269Z,101256.27
2023-01-29T09:46:52.758Z,101253.14
2023-01-29T09:50:00.013Z,101257.98
2023-01-29T09:53:11.333Z,101259.57
2023-01-29T09:56:20.477Z,101261.89
2023-01-29T09:59:27.685Z,101251.57
2023-01-29T10:02:48.280Z,101248.16
2023-01-29T10:06:01.499Z,101241.14
2023-01-29T10:09:26.059Z,101234.63
2023-01-29T10:12:35.686Z,101231.70
2023-01-29T10:15:47.613Z,101228.68
2023-01-29T10:18:59.865Z,101226.62
2023-01-29T10:22:16.617Z,101223.07
2023-01-29T10:25:22.628Z,101217.23
2023-01-29T10:28:30.741Z,101216.33
2023-01-29T10:31:39.088Z,101205.35
2023-01-29T10:34:46.503Z,101197.19
2023-01-29T10:37:53.276Z,101191.23
2023-01-29T10:41:03.883Z,101188.80
2023-01-29T10:44:17.943Z,101187.73
2023-01-29T10:47:33.290Z,101184.60
2023-01-29T10:50:46.608Z,101175.13
2023-01-29T10:54:00.437Z,101167.81
2023-01-29T10:57:12.371Z,101171.47
2023-01-29T11:00:21.717Z,101162.40
2023-01-29T11:03:28.938Z,101159.09
2023-01-29T11:06:36.413Z,101158.66
2023-01-29T11:09:44.316Z,101156.73
2023-01-29T11:12:50.442Z,101164.74
2023-01-29T11:15:55.743Z,101165.48
2023-01-29T11:19:02.186Z,101156.47
2023-01-29T11:22:13.668Z,101153.02
2023-01-29T11:25:20.061Z,101136.85
2023-01-29T11:28:38.833Z,101153.40
2023-01-29T11:31:43.966Z,101155.20
2023-01-29T11:34:59.205Z,101141.27
2023-01-29T11:38:18.998Z,101133.35
2023-01-29T11:41:25.528Z,101128.18
2023-01-29T11:44:32.240Z,101114.98
2023-01-29T11:47:37.626Z,101097.60
2023-01-29T11:50:43.454Z,101086.94
2023-01-29T11:53:52.366Z,101088.23
2023-01-29T11:56:58.218Z,101089.20
2023-01-29T12:00:06.505Z,101084.88
2023-01-29T12:03:16.660Z,101073.77
2023-01-29T12:06:24.068Z,101075.44
2023-01-29T12:09:30.642Z,101078.44
2023-01-29T12:12:39.303Z,101074.58
2023-01-29T12:15:44.600Z,101071.21
2023-01-29T12:18:54.281Z,101071.96
2023-01-29T12:22:03.090Z,101062.13
2023-01-29T12:25:18.307Z,101053.94
2023-01-29T12:28:32.750Z,101058.42
2023-01-29T12:31:45.095Z,101059.83
2023-01-29T12:34:52.473Z,101054.73
2023-01-29T12:38:00.967Z,101045.50
2023-01-29T12:41:09.363Z,101034.76
2023-01-29T12:44:17.173Z,101039.41
2023-01-29T12:47:26.395Z,101041.29
2023-01-29T12:50:34.617Z,101042.30
2023-01-29T12:53:42.782Z,101037.76
2023-01-29T12:56:49.906Z,101036.88
2023-01-29T12:59:59.288Z,101036.16
2023-01-29T13:03:08.939Z,101033.34
2023-01-29T13:06:16.963Z,101032.91
2023-01-29T13:09:23.386Z,101016.27
2023-01-29T13:12:29.599Z,101003.39
2023-01-29T13:15:37.458Z,100999.94
2023-01-29T13:18:45.630Z,100994.92
2023-01-29T13:21:52.509Z,100986.84
2023-01-29T13:25:05.187Z,100988.59
2023-01-29T13:28:18.124Z,100996.65
2023-01-29T13:31:28.605Z,100996.14
2023-01-29T13:34:35.731Z,100997.48
2023-01-29T13:37:43.347Z,100997.16
2023-01-29T13:40:51.140Z,100995.05
2023-01-29T13:43:56.854Z,100997.28
2023-01-29T13:47:05.223Z,100998.19
2023-01-29T13:50:14.537Z,100988.61
2023-01-29T13:53:23.557Z,100987.36
2023-01-29T13:56:44.134Z,100995.15
2023-01-29T13:59:53.242Z,100993.94
2023-01-29T14:03:12.328Z,100992.94
2023-01-29T14:06:31.088Z,100982.88
2023-01-29T14:09:49.845Z,100975.48
2023-01-29T14:12:55.719Z,100977.16
2023-01-29T14:16:18.513Z,100977.06
2023-01-29T14:19:25.724Z,100980.39
2023-01-29T14:22:33.796Z,100973.27
2023-01-29T14:25:40.719Z,100973.07
2023-01-29T14:28:53.470Z,100969.11
2023-01-29T14:32:01.346Z,100969.13
2023-01-29T14:35:18.885Z,100972.75
2023-01-29T14:38:26.482Z,100968.06
2023-01-29T14:41:33.626Z,100969.30
2023-01-29T14:44:58.513Z,100967.76
2023-01-29T14:48:05.802Z,100961.58
2023-01-29T14:51:11.976Z,100955.82
2023-01-29T14:54:23.805Z,100954.73
2023-01-29T14:57:30.651Z,100953.68
2023-01-29T15:00:38.223Z,100946.39
2023-01-29T15:03:45.542Z,100939.89
2023-01-29T15:06:54.027Z,100939.48
2023-01-29T15:10:21.367Z,100941.96
2023-01-29T15:13:32.133Z,100934.96
2023-01-29T15:16:42.169Z,100931.84
2023-01-29T15:19:49.075Z,100931.25
2023-01-29T15:22:54.398Z,100928.13
2023-01-29T15:26:03.305Z,100923.66
2023-01-29T15:29:22.175Z,100921.33
2023-01-29T15:32:29.531Z,100921.84
2023-01-29T15:35:37.146Z,100909.60
2023-01-29T15:38:42.704Z,100904.35
2023-01-29T15:41:48.329Z,100905.79
2023-01-29T15:44:55.461Z,100903.25
2023-01-29T15:48:03.988Z,100906.48
2023-01-29T15:51:12.004Z,100907.33
2023-01-29T15:54:18.048Z,100900.50
2023-01-29T15:57:25.222Z,100899.30
2023-01-29T16:00:31.561Z,100892.79
2023-01-29T16:03:37.694Z,100892.02
2023-01-29T16:06:43.619Z,100885.29
2023-01-29T16:09:49.393Z,100877.02
2023-01-29T16:12:54.943Z,100868.02
2023-01-29T16:16:01.852Z,100871.02
2023-01-29T16:19:20.986Z,100870.88
2023-01-29T16:22:26.979Z,100872.18
2023-01-29T16:25:33.210Z,100866.39
2023-01-29T16:28:42.450Z,100866.44
2023-01-29T16:31:49.159Z,100858.52
2023-01-29T16:34:57.284Z,100853.51
2023-01-29T16:38:04.310Z,100856.07
2023-01-29T16:41:16.229Z,100850.09
2023-01-29T16:44:35.638Z,100848.65
2023-01-29T16:47:41.611Z,100845.09
2023-01-29T16:50:55.141Z,100850.08
2023-01-29T16:54:02.173Z,100846.13
2023-01-29T16:57:07.743Z,100846.06
2023-01-29T17:00:19.290Z,100846.04
2023-01-29T17:03:26.650Z,100842.65
2023-01-29T17:06:32.787Z,100849.37
2023-01-29T17:09:38.971Z,100849.17
2023-01-29T17:12:49.596Z,100848.39
2023-01-29T17:15:55.119Z,100847.58
2023-01-29T17:19:01.102Z,100841.09
2023-01-29T17:22:08.498Z,100837.67
2023-01-29T17:25:16.244Z,100837.25
2023-01-29T17:28:22.005Z,100831.92
2023-01-29T17:31:27.808Z,100831.19
2023-01-29T17:34:33.053Z,100836.34
2023-01-29T17:37:38.317Z,100829.05
2023-01-29T17:40:45.672Z,100830.39
2023-01-29T17:43:51.016Z,100828.11
2023-01-29T17:46:56.355Z,100817.64
2023-01-29T17:50:01.882Z,100813.30
2023-01-29T17:53:07.379Z,100811.77
2023-01-29T17:56:15.532Z,100803.91
2023-01-29T17:59:21.554Z,100793.27
2023-01-29T18:02:29.160Z,100791.58
2023-01-29T18:05:35.239Z,100791.34
2023-01-29T18:08:40.859Z,100790.18
2023-01-29T18:11:46.105Z,100789.45
2023-01-29T18:14:51.402Z,100788.55
2023-01-29T18:17:57.371Z,100780.11
2023-01-29T18:21:02.724Z,100778.19
2023-01-29T18:24:08.546Z,100778.59
2023-01-29T18:27:13.957Z,100769.73
2023-01-29T18:30:19.451Z,100764.23
2023-01-29T18:33:25.867Z,100761.81
2023-01-29T18:36:31.269Z,100753.05
2023-01-29T18:39:36.672Z,100743.35
2023-01-29T18:42:42.013Z,100735.52
2023-01-29T18:45:48.731Z,100735.55
2023-01-29T18:48:54.156Z,100732.01
2023-01-29T18:51:59.503Z,100730.06
2023-01-29T18:55:09.752Z,100720.19
2023-01-29T18:58:27.338Z,100722.25
2023-01-29T19:01:39.322Z,100722.86
2023-01-29T19:04:46.964Z,100722.52
2023-01-29T19:07:53.397Z,100715.83
2023-01-29T19:11:02.390Z,100714.70
2023-01-29T19:14:07.793Z,100707.37
2023-01-29T19:17:13.229Z,100705.11
2023-01-29T19:20:18.804Z,100708.09
2023-01-29T19:23:24.239Z,100705.24
2023-01-29T19:26:33.872Z,100697.92
2023-01-29T19:29:39.362Z,100699.95
2023-01-29T19:32:44.654Z,100698.23
2023-01-29T19:35:49.856Z,100693.98
2023-01-29T19:38:55.359Z,100691.80
2023-01-29T19:42:01.282Z,100692.87
2023-01-29T19:45:07.609Z,100690.33
2023-01-29T19:48:13.749Z,100688.05
2023-01-29T19:51:19.057Z,100681.86
2023-01-29T19:54:27.424Z,100674.29
2023-01-29T19:57:33.049Z,100672.58
2023-01-29T20:00:38.361Z,100670.05
2023-01-29T20:03:46.453Z,100658.58
2023-01-29T20:06:51.853Z,100658.63
2023-01-29T20:09:57.252Z,100655.79
2023-01-29T20:13:02.654Z,100643.73
2023-01-29T20:16:08.805Z,100637.38
2023-01-29T20:19:15.256Z,100637.94
2023-01-29T20:22:20.700Z,100638.67
2023-01-29T20:25:26.214Z,100630.75
2023-01-29T20:28:31.685Z,100625.51
2023-01-29T20:31:37.122Z,100621.73
2023-01-29T20:34:42.525Z,100612.34
2023-01-29T20:37:47.720Z,100601.34
2023-01-29T20:40:53.111Z,100600.21
2023-01-29T20:43:58.566Z,100594.25
2023-01-29T20:47:04.142Z,100593.58
2023-01-29T20:50:11.572Z,100594.39
2023-01-29T20:53:17.039Z,100588.04
2023-01-29T20:56:32.230Z,100579.96
2023-01-29T20:59:42.291Z,100569.14
2023-01-29T21:02:47.809Z,100560.30
2023-01-29T21:05:54.393Z,100556.53
2023-01-29T21:08:59.682Z,100558.79
2023-01-29T21:12:05.720Z,100553.79
2023-01-29T21:15:12.040Z,100548.17
2023-01-29T21:18:17.348Z,100540.35
2023-01-29T21:21:22.682Z,100530.27
2023-01-29T21:24:28.030Z,100525.00
2023-01-29T21:27:33.365Z,100517.40
2023-01-29T21:30:39.228Z,100516.07
2023-01-29T21:33:44.607Z,100509.08
2023-01-29T21:36:49.861Z,100503.73
2023-01-29T21:39:55.060Z,100503.44
2023-01-29T21:43:16.053Z,100493.97
2023-01-29T21:46:21.342Z,100491.48
2023-01-29T21:49:27.179Z,100492.54
2023-01-29T21:52:32.475Z,100491.91
2023-01-29T21:55:37.727Z,100490.61
2023-01-29T21:58:43.218Z,100491.86
2023-01-29T22:01:48.431Z,100481.11
2023-01-29T22:05:05.282Z,100478.42
2023-01-29T22:08:17.613Z,100474.74
2023-01-29T22:11:23.274Z,100463.86
2023-01-29T22:14:28.547Z,100453.28
2023-01-29T22:17:33.967Z,100450.13
2023-01-29T22:20:39.199Z,100443.45
2023-01-29T22:23:45.297Z,100431.07
2023-01-29T22:26:50.558Z,100416.75
2023-01-29T22:29:55.931Z,100409.19
2023-01-29T22:33:01.758Z,100400.80
2023-01-29T22:36:08.146Z,100396.29
2023-01-29T22:39:13.879Z,100393.11
2023-01-29T22:42:21.121Z,100386.27
2023-01-29T22:45:27.133Z,100376.20
2023-01-29T22:48:32.462Z,100370.07
2023-01-29T22:51:38.268Z,100366.66
2023-01-29T22:54:43.830Z,100363.35
2023-01-29T22:57:50.801Z,100355.96
2023-01-29T23:00:56.160Z,100346.40
2023-01-29T23:04:02.235Z,100342.08
2023-01-29T23:07:07.544Z,100335.05
2023-01-29T23:10:16.571Z,100322.64
2023-01-29T23:13:22.167Z,100318.89
2023-01-29T23:16:29.240Z,100303.91
2023-01-29T23:19:34.669Z,100288.88
2023-01-29T23:22:39.985Z,100285.91
2023-01-29T23:26:03.174Z,100281.63
2023-01-29T23:29:08.479Z,100262.38
2023-01-29T23:32:15.028Z,100256.73
2023-01-29T23:35:20.276Z,100260.36
2023-01-29T23:38:25.667Z,100264.63
2023-01-29T23:41:30.904Z,100256.86
2023-01-29T23:44:36.740Z,100247.43
2023-01-29T23:47:42.285Z,100238.80
2023-01-29T23:50:47.901Z,100234.52
2023-01-29T23:53:53.153Z,100231.77
2023-01-29T23:56:58.505Z,100226.48
